sensor_id;sensor_type;location;lat;lon;timestamp;pressure;altitude;pressure_sealevel;temperature;humidity
64023;BME280;50264;52.088;5.296;2023-04-12T00:00:52;100438.0;;;10.31;85.43
64023;BME280;50264;52.088;5.296;2023-04-12T00:02:28;100440.0;;;10.27;85.28
64023;BME280;50264;52.088;5.296;2023-04-12T00:04:04;100430.0;;;10.06;87.31
64023;BME280;50264;52.088;5.296;2023-04-12T00:05:40;100428.0;;;10.0;87.25
64023;BME280;50264;52.088;5.296;2023-04-12T00:08:52;100427.0;;;9.94;87.58
64023;BME280;50264;52.088;5.296;2023-04-12T00:10:29;100417.0;;;9.89;89.94
64023;BME280;50264;52.088;5.296;2023-04-12T00:12:06;100414.0;;;9.91;90.48
64023;BME280;50264;52.088;5.296;2023-04-12T00:15:18;100406.0;;;9.76;90.01
64023;BME280;50264;52.088;5.296;2023-04-12T00:16:54;100412.0;;;9.85;91.13
64023;BME280;50264;52.088;5.296;2023-04-12T00:18:30;100391.0;;;9.9;90.73
64023;BME280;50264;52.088;5.296;2023-04-12T00:21:44;100389.0;;;9.78;90.71
64023;BME280;50264;52.088;5.296;2023-04-12T00:23:20;100387.0;;;9.81;91.18
64023;BME280;50264;52.088;5.296;2023-04-12T00:24:57;100380.0;;;9.82;91.04
64023;BME280;50264;52.088;5.296;2023-04-12T00:26:33;100369.0;;;9.81;90.42
64023;BME280;50264;52.088;5.296;2023-04-12T00:29:45;100364.0;;;9.73;91.79
64023;BME280;50264;52.088;5.296;2023-04-12T00:31:21;100371.0;;;9.63;91.44
64023;BME280;50264;52.088;5.296;2023-04-12T00:32:57;100367.0;;;9.59;91.6
64023;BME280;50264;52.088;5.296;2023-04-12T00:36:10;100365.0;;;9.48;92.5
64023;BME280;50264;52.088;5.296;2023-04-12T00:37:46;100345.0;;;9.31;92.48
64023;BME280;50264;52.088;5.296;2023-04-12T00:39:22;100341.0;;;9.57;93.15
64023;BME280;50264;52.088;5.296;2023-04-12T00:42:36;100352.0;;;9.63;93.19
64023;BME280;50264;52.088;5.296;2023-04-12T00:44:12;100331.0;;;9.43;93.98
64023;BME280;50264;52.088;5.296;2023-04-12T00:45:48;100324.0;;;9.38;94.03
64023;BME280;50264;52.088;5.296;2023-04-12T00:49:01;100309.0;;;9.22;94.24
64023;BME280;50264;52.088;5.296;2023-04-12T00:50:38;100305.0;;;9.22;94.44
64023;BME280;50264;52.088;5.296;2023-04-12T00:52:15;100294.0;;;9.32;94.31
64023;BME280;50264;52.088;5.296;2023-04-12T00:53:54;100283.0;;;9.4;93.29
64023;BME280;50264;52.088;5.296;2023-04-12T00:57:07;100285.0;;;9.32;94.17
64023;BME280;50264;52.088;5.296;2023-04-12T00:58:44;100280.0;;;9.3;95.12
64023;BME280;50264;52.088;5.296;2023-04-12T01:00:20;100268.0;;;9.33;95.18
64023;BME280;50264;52.088;5.296;2023-04-12T01:03:35;100255.0;;;9.16;94.58
64023;BME280;50264;52.088;5.296;2023-04-12T01:05:11;100249.0;;;9.08;95.55
64023;BME280;50264;52.088;5.296;2023-04-12T01:07:01;100255.0;;;9.08;94.98
64023;BME280;50264;52.088;5.296;2023-04-12T01:08:55;100248.0;;;9.05;95.45
64023;BME280;50264;52.088;5.296;2023-04-12T01:10:40;100246.0;;;9.06;95.82
64023;BME280;50264;52.088;5.296;2023-04-12T01:14:26;100242.0;;;9.15;96.26
64023;BME280;50264;52.088;5.296;2023-04-12T01:16:13;100230.0;;;9.26;95.7
64023;BME280;50264;52.088;5.296;2023-04-12T01:17:57;100222.0;;;9.26;95.15
64023;BME280;50264;52.088;5.296;2023-04-12T01:19:45;100221.0;;;9.22;95.94
64023;BME280;50264;52.088;5.296;2023-04-12T01:21:35;100213.0;;;9.22;95.36
64023;BME280;50264;52.088;5.296;2023-04-12T01:23:42;100203.0;;;9.21;96.78
64023;BME280;50264;52.088;5.296;2023-04-12T01:25:37;100190.0;;;9.27;96.71
64023;BME280;50264;52.088;5.296;2023-04-12T01:27:27;100192.0;;;9.38;95.68
64023;BME280;50264;52.088;5.296;2023-04-12T01:30:46;100187.0;;;9.35;95.75
64023;BME280;50264;52.088;5.296;2023-04-12T01:32:25;100175.0;;;9.25;95.7
64023;BME280;50264;52.088;5.296;2023-04-12T01:34:03;100167.0;;;9.15;96.78
64023;BME280;50264;52.088;5.296;2023-04-12T01:35:41;100170.0;;;9.11;96.39
64023;BME280;50264;52.088;5.296;2023-04-12T01:38:56;100156.0;;;9.21;95.94
64023;BME280;50264;52.088;5.296;2023-04-12T01:40:34;100156.0;;;9.27;95.76
64023;BME280;50264;52.088;5.296;2023-04-12T01:42:11;100152.0;;;9.19;96.28
64023;BME280;50264;52.088;5.296;2023-04-12T01:45:23;100151.0;;;9.14;95.68
64023;BME280;50264;52.088;5.296;2023-04-12T01:46:59;100136.0;;;9.07;96.51
64023;BME280;50264;52.088;5.296;2023-04-12T01:48:35;100141.0;;;9.1;96.65
64023;BME280;50264;52.088;5.296;2023-04-12T01:52:00;100124.0;;;9.22;96.58
64023;BME280;50264;52.088;5.296;2023-04-12T01:53:44;100130.0;;;9.3;95.35
64023;BME280;50264;52.088;5.296;2023-04-12T01:55:24;100116.0;;;9.27;95.85
64023;BME280;50264;52.088;5.296;2023-04-12T01:57:04;100109.0;;;9.25;96.05
64023;BME280;50264;52.088;5.296;2023-04-12T01:58:43;100101.0;;;9.23;95.94
64023;BME280;50264;52.088;5.296;2023-04-12T02:01:58;100105.0;;;9.22;96.16
64023;BME280;50264;52.088;5.296;2023-04-12T02:03:35;100098.0;;;9.17;95.28
64023;BME280;50264;52.088;5.296;2023-04-12T02:05:12;100096.0;;;9.19;95.42
64023;BME280;50264;52.088;5.296;2023-04-12T02:08:25;100094.0;;;9.06;95.99
64023;BME280;50264;52.088;5.296;2023-04-12T02:10:01;100084.0;;;8.99;96.25
64023;BME280;50264;52.088;5.296;2023-04-12T02:11:37;100076.0;;;8.97;96.7
64023;BME280;50264;52.088;5.296;2023-04-12T02:13:13;100055.0;;;9.05;97.11
64023;BME280;50264;52.088;5.296;2023-04-12T02:16:26;100055.0;;;9.05;96.54
64023;BME280;50264;52.088;5.296;2023-04-12T02:18:02;100044.0;;;9.09;97.25
64023;BME280;50264;52.088;5.296;2023-04-12T02:19:37;100050.0;;;9.17;97.0
64023;BME280;50264;52.088;5.296;2023-04-12T02:22:50;100051.0;;;9.25;96.34
64023;BME280;50264;52.088;5.296;2023-04-12T02:24:26;100034.0;;;9.13;96.65
64023;BME280;50264;52.088;5.296;2023-04-12T02:26:03;100030.0;;;9.28;97.09
64023;BME280;50264;52.088;5.296;2023-04-12T02:29:15;100024.0;;;9.23;96.59
64023;BME280;50264;52.088;5.296;2023-04-12T02:30:51;100011.0;;;9.27;96.28
64023;BME280;50264;52.088;5.296;2023-04-12T02:32:27;100014.0;;;9.17;96.5
64023;BME280;50264;52.088;5.296;2023-04-12T02:35:41;100008.0;;;9.22;96.9
64023;BME280;50264;52.088;5.296;2023-04-12T02:37:17;100001.0;;;9.22;96.48
64023;BME280;50264;52.088;5.296;2023-04-12T02:38:53;99997.0;;;9.09;96.62
64023;BME280;50264;52.088;5.296;2023-04-12T02:40:29;99990.0;;;9.0;97.36
64023;BME280;50264;52.088;5.296;2023-04-12T02:43:41;99976.0;;;8.98;97.29
64023;BME280;50264;52.088;5.296;2023-04-12T02:45:18;99976.0;;;9.06;98.17
64023;BME280;50264;52.088;5.296;2023-04-12T02:46:54;99970.0;;;9.06;98.15
64023;BME280;50264;52.088;5.296;2023-04-12T02:50:07;99968.0;;;9.09;97.97
64023;BME280;50264;52.088;5.296;2023-04-12T02:51:43;99964.0;;;9.13;97.92
64023;BME280;50264;52.088;5.296;2023-04-12T02:53:19;99953.0;;;9.09;97.48
64023;BME280;50264;52.088;5.296;2023-04-12T02:56:34;99948.0;;;9.0;97.84
64023;BME280;50264;52.088;5.296;2023-04-12T02:58:10;99942.0;;;9.07;97.6
64023;BME280;50264;52.088;5.296;2023-04-12T02:59:46;99941.0;;;9.06;97.15
64023;BME280;50264;52.088;5.296;2023-04-12T03:01:22;99939.0;;;8.93;97.84
64023;BME280;50264;52.088;5.296;2023-04-12T03:04:35;99928.0;;;9.01;97.6
64023;BME280;50264;52.088;5.296;2023-04-12T03:06:11;99910.0;;;9.0;98.33
64023;BME280;50264;52.088;5.296;2023-04-12T03:07:47;99911.0;;;9.08;99.04
64023;BME280;50264;52.088;5.296;2023-04-12T03:11:00;99910.0;;;9.03;98.3
64023;BME280;50264;52.088;5.296;2023-04-12T03:12:36;99910.0;;;8.96;98.68
64023;BME280;50264;52.088;5.296;2023-04-12T03:14:12;99889.0;;;9.05;99.15
64023;BME280;50264;52.088;5.296;2023-04-12T03:17:24;99902.0;;;8.89;99.0
64023;BME280;50264;52.088;5.296;2023-04-12T03:19:00;99883.0;;;8.81;99.61
64023;BME280;50264;52.088;5.296;2023-04-12T03:20:36;99882.0;;;8.81;100.0
64023;BME280;50264;52.088;5.296;2023-04-12T03:23:49;99895.0;;;8.73;100.0
64023;BME280;50264;52.088;5.296;2023-04-12T03:25:25;99882.0;;;8.84;100.0
64023;BME280;50264;52.088;5.296;2023-04-12T03:27:01;99890.0;;;8.91;100.0
64023;BME280;50264;52.088;5.296;2023-04-12T03:28:39;99881.0;;;8.9;100.0
64023;BME280;50264;52.088;5.296;2023-04-12T03:31:51;99876.0;;;8.8;99.64
64023;BME280;50264;52.088;5.296;2023-04-12T03:33:27;99885.0;;;8.98;99.85
64023;BME280;50264;52.088;5.296;2023-04-12T03:35:04;99890.0;;;8.98;99.98
64023;BME280;50264;52.088;5.296;2023-04-12T03:38:16;99874.0;;;9.06;99.48
64023;BME280;50264;52.088;5.296;2023-04-12T03:39:52;99868.0;;;8.98;99.46
64023;BME280;50264;52.088;5.296;2023-04-12T03:41:28;99865.0;;;8.97;100.0
64023;BME280;50264;52.088;5.296;2023-04-12T03:44:40;99862.0;;;8.98;100.0
64023;BME280;50264;52.088;5.296;2023-04-12T03:46:16;99855.0;;;8.98;100.0
64023;BME280;50264;52.088;5.296;2023-04-12T03:47:52;99851.0;;;8.89;100.0
64023;BME280;50264;52.088;5.296;2023-04-12T03:49:29;99855.0;;;8.75;100.0
64023;BME280;50264;52.088;5.296;2023-04-12T03:52:42;99852.0;;;8.89;100.0
64023;BME280;50264;52.088;5.296;2023-04-12T03:54:18;99838.0;;;8.94;100.0
64023;BME280;50264;52.088;5.296;2023-04-12T03:55:55;99844.0;;;8.99;99.39
64023;BME280;50264;52.088;5.296;2023-04-12T03:59:07;99838.0;;;8.96;99.92
64023;BME280;50264;52.088;5.296;2023-04-12T04:00:43;99821.0;;;9.03;100.0
64023;BME280;50264;52.088;5.296;2023-04-12T04:02:20;99820.0;;;9.13;100.0
64023;BME280;50264;52.088;5.296;2023-04-12T04:05:32;99812.0;;;9.07;100.0
64023;BME280;50264;52.088;5.296;2023-04-12T04:07:09;99808.0;;;8.91;99.95
64023;BME280;50264;52.088;5.296;2023-04-12T04:08:46;99797.0;;;8.88;100.0
64023;BME280;50264;52.088;5.296;2023-04-12T04:10:22;99783.0;;;8.73;100.0
64023;BME280;50264;52.088;5.296;2023-04-12T04:13:34;99782.0;;;8.76;100.0
64023;BME280;50264;52.088;5.296;2023-04-12T04:15:13;99780.0;;;8.83;100.0
64023;BME280;50264;52.088;5.296;2023-04-12T04:16:50;99780.0;;;8.82;100.0
64023;BME280;50264;52.088;5.296;2023-04-12T04:20:02;99780.0;;;8.85;100.0
64023;BME280;50264;52.088;5.296;2023-04-12T04:21:39;99768.0;;;8.81;100.0
64023;BME280;50264;52.088;5.296;2023-04-12T04:23:15;99768.0;;;8.74;100.0
64023;BME280;50264;52.088;5.296;2023-04-12T04:26:27;99777.0;;;8.73;100.0
64023;BME280;50264;52.088;5.296;2023-04-12T04:28:04;99766.0;;;8.81;100.0
64023;BME280;50264;52.088;5.296;2023-04-12T04:29:41;99767.0;;;8.9;100.0
64023;BME280;50264;52.088;5.296;2023-04-12T04:31:17;99759.0;;;8.89;100.0
64023;BME280;50264;52.088;5.296;2023-04-12T04:34:29;99759.0;;;8.94;100.0
64023;BME280;50264;52.088;5.296;2023-04-12T04:36:06;99763.0;;;9.01;100.0
64023;BME280;50264;52.088;5.296;2023-04-12T04:37:42;99769.0;;;8.98;100.0
64023;BME280;50264;52.088;5.296;2023-04-12T04:40:54;99765.0;;;8.92;100.0
64023;BME280;50264;52.088;5.296;2023-04-12T04:42:31;99753.0;;;9.07;100.0
64023;BME280;50264;52.088;5.296;2023-04-12T04:44:07;99770.0;;;8.98;100.0
64023;BME280;50264;52.088;5.296;2023-04-12T04:47:21;99758.0;;;8.94;100.0
64023;BME280;50264;52.088;5.296;2023-04-12T04:48:58;99763.0;;;9.05;100.0
64023;BME280;50264;52.088;5.296;2023-04-12T04:50:35;99756.0;;;8.98;100.0
64023;BME280;50264;52.088;5.296;2023-04-12T04:52:11;99756.0;;;8.91;100.0
64023;BME280;50264;52.088;5.296;2023-04-12T04:55:24;99755.0;;;8.92;100.0
64023;BME280;50264;52.088;5.296;2023-04-12T04:57:00;99757.0;;;8.84;100.0
64023;BME280;50264;52.088;5.296;2023-04-12T04:58:36;99751.0;;;8.94;100.0
64023;BME280;50264;52.088;5.296;2023-04-12T05:01:50;99748.0;;;8.9;100.0
64023;BME280;50264;52.088;5.296;2023-04-12T05:03:26;99749.0;;;8.9;100.0
64023;BME280;50264;52.088;5.296;2023-04-12T05:05:03;99748.0;;;9.0;100.0
64023;BME280;50264;52.088;5.296;2023-04-12T05:08:15;99748.0;;;8.99;100.0
64023;BME280;50264;52.088;5.296;2023-04-12T05:11:27;99740.0;;;8.8;100.0
64023;BME280;50264;52.088;5.296;2023-04-12T05:14:40;99741.0;;;8.88;100.0
64023;BME280;50264;52.088;5.296;2023-04-12T05:16:16;99749.0;;;8.86;100.0
64023;BME280;50264;52.088;5.296;2023-04-12T05:17:52;99738.0;;;8.83;100.0
64023;BME280;50264;52.088;5.296;2023-04-12T05:19:28;99733.0;;;8.89;100.0
64023;BME280;50264;52.088;5.296;2023-04-12T05:22:41;99731.0;;;8.91;100.0
64023;BME280;50264;52.088;5.296;2023-04-12T05:24:18;99727.0;;;8.78;100.0
64023;BME280;50264;52.088;5.296;2023-04-12T05:25:54;99732.0;;;8.86;100.0
64023;BME280;50264;52.088;5.296;2023-04-12T05:29:06;99727.0;;;9.03;100.0
64023;BME280;50264;52.088;5.296;2023-04-12T05:30:42;99728.0;;;9.01;100.0
64023;BME280;50264;52.088;5.296;2023-04-12T05:32:19;99726.0;;;9.02;100.0
64023;BME280;50264;52.088;5.296;2023-04-12T05:35:32;99726.0;;;9.05;100.0
64023;BME280;50264;52.088;5.296;2023-04-12T05:37:08;99728.0;;;9.14;100.0
64023;BME280;50264;52.088;5.296;2023-04-12T05:38:44;99726.0;;;9.11;100.0
64023;BME280;50264;52.088;5.296;2023-04-12T05:40:20;99730.0;;;8.99;100.0
64023;BME280;50264;52.088;5.296;2023-04-12T05:43:32;99723.0;;;9.14;100.0
64023;BME280;50264;52.088;5.296;2023-04-12T05:45:09;99731.0;;;9.24;100.0
64023;BME280;50264;52.088;5.296;2023-04-12T05:46:45;99732.0;;;9.21;100.0
64023;BME280;50264;52.088;5.296;2023-04-12T05:49:58;99735.0;;;9.17;100.0
64023;BME280;50264;52.088;5.296;2023-04-12T05:51:34;99737.0;;;9.26;100.0
64023;BME280;50264;52.088;5.296;2023-04-12T05:53:11;99736.0;;;9.31;100.0
64023;BME280;50264;52.088;5.296;2023-04-12T05:56:22;99742.0;;;9.39;100.0
64023;BME280;50264;52.088;5.296;2023-04-12T05:57:58;99741.0;;;9.46;100.0
64023;BME280;50264;52.088;5.296;2023-04-12T05:59:35;99741.0;;;9.4;100.0
64023;BME280;50264;52.088;5.296;2023-04-12T06:02:47;99740.0;;;9.33;100.0
64023;BME280;50264;52.088;5.296;2023-04-12T06:04:24;99746.0;;;9.4;100.0
64023;BME280;50264;52.088;5.296;2023-04-12T06:06:00;99747.0;;;9.38;100.0
64023;BME280;50264;52.088;5.296;2023-04-12T06:07:36;99748.0;;;9.4;100.0
64023;BME280;50264;52.088;5.296;2023-04-12T06:10:48;99753.0;;;9.5;100.0
64023;BME280;50264;52.088;5.296;2023-04-12T06:12:25;99751.0;;;9.52;100.0
64023;BME280;50264;52.088;5.296;2023-04-12T06:14:01;99745.0;;;9.6;100.0
64023;BME280;50264;52.088;5.296;2023-04-12T06:17:13;99739.0;;;9.52;100.0
64023;BME280;50264;52.088;5.296;2023-04-12T06:18:49;99737.0;;;9.64;100.0
64023;BME280;50264;52.088;5.296;2023-04-12T06:20:25;99738.0;;;9.56;100.0
64023;BME280;50264;52.088;5.296;2023-04-12T06:23:38;99735.0;;;9.64;100.0
64023;BME280;50264;52.088;5.296;2023-04-12T06:25:14;99734.0;;;9.6;100.0
64023;BME280;50264;52.088;5.296;2023-04-12T06:26:50;99735.0;;;9.67;100.0
64023;BME280;50264;52.088;5.296;2023-04-12T06:28:26;99735.0;;;9.78;100.0
64023;BME280;50264;52.088;5.296;2023-04-12T06:31:38;99737.0;;;9.81;100.0
64023;BME280;50264;52.088;5.296;2023-04-12T06:33:14;99733.0;;;9.97;100.0
64023;BME280;50264;52.088;5.296;2023-04-12T06:34:51;99733.0;;;9.94;100.0
64023;BME280;50264;52.088;5.296;2023-04-12T06:38:03;99732.0;;;9.85;100.0
64023;BME280;50264;52.088;5.296;2023-04-12T06:39:39;99730.0;;;9.88;100.0
64023;BME280;50264;52.088;5.296;2023-04-12T06:41:15;99735.0;;;9.89;100.0
64023;BME280;50264;52.088;5.296;2023-04-12T06:44:27;99739.0;;;9.88;100.0
64023;BME280;50264;52.088;5.296;2023-04-12T06:46:03;99733.0;;;9.91;100.0
64023;BME280;50264;52.088;5.296;2023-04-12T06:47:40;99734.0;;;9.98;100.0
64023;BME280;50264;52.088;5.296;2023-04-12T06:50:52;99730.0;;;9.97;99.76
64023;BME280;50264;52.088;5.296;2023-04-12T06:52:28;99724.0;;;9.99;100.0
64023;BME280;50264;52.088;5.296;2023-04-12T06:54:04;99718.0;;;9.99;100.0
64023;BME280;50264;52.088;5.296;2023-04-12T06:55:40;99718.0;;;10.07;100.0
64023;BME280;50264;52.088;5.296;2023-04-12T06:58:53;99719.0;;;10.22;100.0
64023;BME280;50264;52.088;5.296;2023-04-12T07:00:29;99719.0;;;10.23;100.0
64023;BME280;50264;52.088;5.296;2023-04-12T07:02:05;99722.0;;;10.13;99.92
64023;BME280;50264;52.088;5.296;2023-04-12T07:05:17;99730.0;;;10.25;100.0
64023;BME280;50264;52.088;5.296;2023-04-12T07:06:53;99733.0;;;10.24;100.0
64023;BME280;50264;52.088;5.296;2023-04-12T07:08:30;99726.0;;;10.07;98.99
64023;BME280;50264;52.088;5.296;2023-04-12T07:11:44;99721.0;;;10.09;98.98
64023;BME280;50264;52.088;5.296;2023-04-12T07:13:20;99722.0;;;10.19;99.19
64023;BME280;50264;52.088;5.296;2023-04-12T07:14:56;99717.0;;;10.23;99.51
64023;BME280;50264;52.088;5.296;2023-04-12T07:16:32;99713.0;;;10.28;99.79
64023;BME280;50264;52.088;5.296;2023-04-12T07:19:44;99723.0;;;10.23;99.24
64023;BME280;50264;52.088;5.296;2023-04-12T07:21:20;99717.0;;;10.27;100.0
64023;BME280;50264;52.088;5.296;2023-04-12T07:22:57;99723.0;;;10.19;99.9
64023;BME280;50264;52.088;5.296;2023-04-12T07:26:09;99717.0;;;10.27;100.0
64023;BME280;50264;52.088;5.296;2023-04-12T07:29:22;99723.0;;;10.41;99.33
64023;BME280;50264;52.088;5.296;2023-04-12T07:32:34;99722.0;;;10.23;99.33
64023;BME280;50264;52.088;5.296;2023-04-12T07:34:11;99723.0;;;10.31;99.88
64023;BME280;50264;52.088;5.296;2023-04-12T07:35:47;99718.0;;;10.31;99.4
64023;BME280;50264;52.088;5.296;2023-04-12T07:38:59;99717.0;;;10.3;99.12
64023;BME280;50264;52.088;5.296;2023-04-12T07:40:35;99715.0;;;10.4;99.29
64023;BME280;50264;52.088;5.296;2023-04-12T07:42:11;99713.0;;;10.45;100.0
64023;BME280;50264;52.088;5.296;2023-04-12T07:43:47;99712.0;;;10.45;100.0
64023;BME280;50264;52.088;5.296;2023-04-12T07:47:00;99714.0;;;10.53;99.41
64023;BME280;50264;52.088;5.296;2023-04-12T07:48:36;99709.0;;;10.46;99.15
64023;BME280;50264;52.088;5.296;2023-04-12T07:50:12;99709.0;;;10.55;98.68
64023;BME280;50264;52.088;5.296;2023-04-12T07:53:26;99712.0;;;10.46;99.51
64023;BME280;50264;52.088;5.296;2023-04-12T07:55:03;99711.0;;;10.54;100.0
64023;BME280;50264;52.088;5.296;2023-04-12T07:56:39;99710.0;;;10.58;99.67
64023;BME280;50264;52.088;5.296;2023-04-12T07:59:53;99710.0;;;10.66;99.92
64023;BME280;50264;52.088;5.296;2023-04-12T08:01:29;99711.0;;;10.69;99.62
64023;BME280;50264;52.088;5.296;2023-04-12T08:03:05;99716.0;;;10.67;99.51
64023;BME280;50264;52.088;5.296;2023-04-12T08:04:41;99714.0;;;10.62;98.37
64023;BME280;50264;52.088;5.296;2023-04-12T08:07:53;99712.0;;;10.81;98.96
64023;BME280;50264;52.088;5.296;2023-04-12T08:09:30;99708.0;;;10.73;97.98
64023;BME280;50264;52.088;5.296;2023-04-12T08:11:06;99707.0;;;10.83;98.19
64023;BME280;50264;52.088;5.296;2023-04-12T08:14:19;99699.0;;;10.92;98.95
64023;BME280;50264;52.088;5.296;2023-04-12T08:15:55;99694.0;;;11.01;98.53
64023;BME280;50264;52.088;5.296;2023-04-12T08:17:31;99691.0;;;11.05;98.66
64023;BME280;50264;52.088;5.296;2023-04-12T08:20:44;99694.0;;;11.09;98.05
64023;BME280;50264;52.088;5.296;2023-04-12T08:22:20;99693.0;;;11.2;96.21
64023;BME280;50264;52.088;5.296;2023-04-12T08:23:56;99686.0;;;11.08;96.43
64023;BME280;50264;52.088;5.296;2023-04-12T08:27:08;99682.0;;;11.17;96.64
64023;BME280;50264;52.088;5.296;2023-04-12T08:28:44;99680.0;;;11.29;97.48
64023;BME280;50264;52.088;5.296;2023-04-12T08:30:20;99680.0;;;11.4;97.51
64023;BME280;50264;52.088;5.296;2023-04-12T08:35:09;99675.0;;;11.42;96.35
64023;BME280;50264;52.088;5.296;2023-04-12T08:36:45;99680.0;;;11.36;93.67
64023;BME280;50264;52.088;5.296;2023-04-12T08:38:21;99685.0;;;11.21;90.75
64023;BME280;50264;52.088;5.296;2023-04-12T08:41:35;99686.0;;;11.39;93.47
64023;BME280;50264;52.088;5.296;2023-04-12T08:43:14;99693.0;;;11.31;93.95
64023;BME280;50264;52.088;5.296;2023-04-12T08:44:52;99698.0;;;11.31;92.85
64023;BME280;50264;52.088;5.296;2023-04-12T08:46:29;99698.0;;;11.37;92.89
64023;BME280;50264;52.088;5.296;2023-04-12T08:49:41;99702.0;;;11.37;91.14
64023;BME280;50264;52.088;5.296;2023-04-12T08:51:19;99705.0;;;11.28;90.4
64023;BME280;50264;52.088;5.296;2023-04-12T08:52:57;99706.0;;;11.43;90.37
64023;BME280;50264;52.088;5.296;2023-04-12T08:56:12;99706.0;;;11.55;92.58
64023;BME280;50264;52.088;5.296;2023-04-12T08:57:52;99705.0;;;11.6;91.72
64023;BME280;50264;52.088;5.296;2023-04-12T08:59:29;99707.0;;;11.63;90.06
64023;BME280;50264;52.088;5.296;2023-04-12T09:02:46;99707.0;;;11.68;88.83
64023;BME280;50264;52.088;5.296;2023-04-12T09:04:22;99701.0;;;11.69;88.1
64023;BME280;50264;52.088;5.296;2023-04-12T09:06:01;99703.0;;;11.75;87.43
64023;BME280;50264;52.088;5.296;2023-04-12T09:07:37;99705.0;;;11.81;86.71
64023;BME280;50264;52.088;5.296;2023-04-12T09:10:49;99712.0;;;11.8;87.42
64023;BME280;50264;52.088;5.296;2023-04-12T09:12:26;99701.0;;;11.91;84.53
64023;BME280;50264;52.088;5.296;2023-04-12T09:14:02;99699.0;;;11.97;82.07
64023;BME280;50264;52.088;5.296;2023-04-12T09:17:25;99694.0;;;12.21;86.56
64023;BME280;50264;52.088;5.296;2023-04-12T09:19:02;99692.0;;;12.25;81.27
64023;BME280;50264;52.088;5.296;2023-04-12T09:20:39;99684.0;;;12.26;82.81
64023;BME280;50264;52.088;5.296;2023-04-12T09:22:16;99680.0;;;12.38;85.57
64023;BME280;50264;52.088;5.296;2023-04-12T09:25:39;99676.0;;;12.19;81.48
64023;BME280;50264;52.088;5.296;2023-04-12T09:27:16;99672.0;;;12.25;85.26
64023;BME280;50264;52.088;5.296;2023-04-12T09:28:53;99672.0;;;12.36;83.66
64023;BME280;50264;52.088;5.296;2023-04-12T09:30:29;99680.0;;;12.4;83.16
64023;BME280;50264;52.088;5.296;2023-04-12T09:39:14;99680.0;;;12.24;77.52
64023;BME280;50264;52.088;5.296;2023-04-12T09:42:26;99677.0;;;12.44;82.28
64023;BME280;50264;52.088;5.296;2023-04-12T09:44:03;99680.0;;;12.56;84.85
64023;BME280;50264;52.088;5.296;2023-04-12T09:45:39;99682.0;;;12.48;82.14
64023;BME280;50264;52.088;5.296;2023-04-12T09:47:16;99680.0;;;12.47;78.91
64023;BME280;50264;52.088;5.296;2023-04-12T09:50:31;99678.0;;;12.53;78.77
64023;BME280;50264;52.088;5.296;2023-04-12T09:52:08;99684.0;;;12.46;77.83
64023;BME280;50264;52.088;5.296;2023-04-12T09:53:46;99680.0;;;12.44;78.16
64023;BME280;50264;52.088;5.296;2023-04-12T09:57:03;99681.0;;;12.5;76.22
64023;BME280;50264;52.088;5.296;2023-04-12T09:58:41;99680.0;;;12.57;78.08
64023;BME280;50264;52.088;5.296;2023-04-12T10:00:21;99682.0;;;12.4;78.39
64023;BME280;50264;52.088;5.296;2023-04-12T10:01:58;99685.0;;;12.41;77.74
64023;BME280;50264;52.088;5.296;2023-04-12T10:05:12;99684.0;;;12.43;79.72
64023;BME280;50264;52.088;5.296;2023-04-12T10:06:48;99686.0;;;12.51;74.97
64023;BME280;50264;52.088;5.296;2023-04-12T10:08:25;99681.0;;;12.45;75.74
64023;BME280;50264;52.088;5.296;2023-04-12T10:11:40;99672.0;;;12.47;76.48
64023;BME280;50264;52.088;5.296;2023-04-12T10:13:19;99672.0;;;12.4;75.69
64023;BME280;50264;52.088;5.296;2023-04-12T10:14:57;99664.0;;;12.59;80.87
64023;BME280;50264;52.088;5.296;2023-04-12T10:16:34;99661.0;;;12.65;78.03
64023;BME280;50264;52.088;5.296;2023-04-12T10:19:51;99665.0;;;12.69;77.88
64023;BME280;50264;52.088;5.296;2023-04-12T10:21:28;99665.0;;;12.87;73.22
64023;BME280;50264;52.088;5.296;2023-04-12T10:23:04;99664.0;;;13.08;72.3
64023;BME280;50264;52.088;5.296;2023-04-12T10:26:19;99663.0;;;13.15;73.58
64023;BME280;50264;52.088;5.296;2023-04-12T10:27:55;99655.0;;;13.1;72.08
64023;BME280;50264;52.088;5.296;2023-04-12T10:29:32;99661.0;;;12.94;73.05
64023;BME280;50264;52.088;5.296;2023-04-12T10:31:40;99664.0;;;12.85;76.75
64023;BME280;50264;52.088;5.296;2023-04-12T10:33:16;99664.0;;;12.79;76.08
64023;BME280;50264;52.088;5.296;2023-04-12T10:37:05;99664.0;;;12.67;75.97
64023;BME280;50264;52.088;5.296;2023-04-12T10:38:45;99667.0;;;12.6;74.36
64023;BME280;50264;52.088;5.296;2023-04-12T10:40:21;99665.0;;;12.58;77.72
64023;BME280;50264;52.088;5.296;2023-04-12T10:42:28;99672.0;;;12.47;77.75
64023;BME280;50264;52.088;5.296;2023-04-12T10:44:22;99675.0;;;12.44;80.41
64023;BME280;50264;52.088;5.296;2023-04-12T10:46:00;99680.0;;;12.32;79.59
64023;BME280;50264;52.088;5.296;2023-04-12T10:50:21;99676.0;;;12.35;76.59
64023;BME280;50264;52.088;5.296;2023-04-12T10:53:51;99669.0;;;12.21;74.17
64023;BME280;50264;52.088;5.296;2023-04-12T10:55:28;99672.0;;;12.35;75.38
64023;BME280;50264;52.088;5.296;2023-04-12T10:57:05;99674.0;;;12.49;73.61
64023;BME280;50264;52.088;5.296;2023-04-12T10:58:59;99673.0;;;12.66;74.33
64023;BME280;50264;52.088;5.296;2023-04-12T11:01:40;99673.0;;;12.82;77.25
64023;BME280;50264;52.088;5.296;2023-04-12T11:04:04;99677.0;;;12.81;74.17
64023;BME280;50264;52.088;5.296;2023-04-12T11:06:01;99678.0;;;12.82;75.53
64023;BME280;50264;52.088;5.296;2023-04-12T11:07:39;99670.0;;;12.81;72.0
64023;BME280;50264;52.088;5.296;2023-04-12T11:09:17;99681.0;;;12.92;71.8
64023;BME280;50264;52.088;5.296;2023-04-12T11:10:58;99676.0;;;12.75;68.3
64023;BME280;50264;52.088;5.296;2023-04-12T11:14:14;99680.0;;;12.82;70.22
64023;BME280;50264;52.088;5.296;2023-04-12T11:15:52;99687.0;;;12.81;71.49
64023;BME280;50264;52.088;5.296;2023-04-12T11:17:29;99690.0;;;12.62;66.44
64023;BME280;50264;52.088;5.296;2023-04-12T11:20:43;99682.0;;;12.68;67.85
64023;BME280;50264;52.088;5.296;2023-04-12T11:22:22;99677.0;;;12.66;65.41
64023;BME280;50264;52.088;5.296;2023-04-12T11:23:59;99683.0;;;12.76;65.59
64023;BME280;50264;52.088;5.296;2023-04-12T11:25:36;99687.0;;;12.59;64.77
64023;BME280;50264;52.088;5.296;2023-04-12T11:28:50;99689.0;;;12.75;66.58
64023;BME280;50264;52.088;5.296;2023-04-12T11:30:27;99694.0;;;12.86;70.63
64023;BME280;50264;52.088;5.296;2023-04-12T11:32:05;99687.0;;;12.68;67.08